createdAt,value
2019-04-06T00:01:17.541Z,99609.42
2019-04-06T00:03:51.970Z,99612.23
2019-04-06T00:06:23.272Z,99613.77
2019-04-06T00:08:55.421Z,99614.28
2019-04-06T00:11:27.380Z,99609.34
2019-04-06T00:13:59.811Z,99615.02
2019-04-06T00:16:32.821Z,99610.02
2019-04-06T00:19:04.844Z,99608.39
2019-04-06T00:24:17.161Z,99607.02
2019-04-06T00:26:49.200Z,99608.35
2019-04-06T00:29:21.210Z,99609.20
2019-04-06T00:32:21.208Z,99616.86
2019-04-06T00:34:53.170Z,99612.30
2019-04-06T00:37:25.184Z,99613.22
2019-04-06T00:39:58.331Z,99613.80
2019-04-06T00:42:30.981Z,99612.55
2019-04-06T00:45:03.080Z,99616.44
2019-04-06T00:47:36.231Z,99615.31
2019-04-06T00:50:08.331Z,99619.77
2019-04-06T00:52:40.320Z,99616.89
2019-04-06T00:55:12.542Z,99617.81
2019-04-06T00:57:43.619Z,99620.16
2019-04-06T01:00:15.934Z,99620.34
2019-04-06T01:02:48.010Z,99621.77
2019-04-06T01:05:20.331Z,99624.12
2019-04-06T01:07:51.239Z,99619.55
2019-04-06T01:10:23.108Z,99619.73
2019-04-06T01:12:55.081Z,99619.73
2019-04-06T01:15:27.000Z,99620.59
2019-04-06T01:17:58.921Z,99624.03
2019-04-06T01:20:30.980Z,99615.96
2019-04-06T01:23:02.901Z,99620.44
2019-04-06T01:25:35.176Z,99620.98
2019-04-06T01:28:07.350Z,99621.42
2019-04-06T01:30:39.221Z,99618.42
2019-04-06T01:33:11.341Z,99619.46
2019-04-06T01:35:43.367Z,99613.05
2019-04-06T01:38:15.521Z,99622.61
2019-04-06T01:40:47.450Z,99621.80
2019-04-06T01:43:19.581Z,99616.73
2019-04-06T01:45:51.660Z,99622.13
2019-04-06T01:48:23.720Z,99623.91
2019-04-06T01:50:56.161Z,99622.60
2019-04-06T01:53:28.112Z,99621.41
2019-04-06T01:56:00.224Z,99625.71
2019-04-06T01:58:32.311Z,99622.18
2019-04-06T02:01:15.989Z,99623.97
2019-04-06T02:03:47.987Z,99632.44
2019-04-06T02:06:19.109Z,99619.02
2019-04-06T02:08:51.110Z,99636.31
2019-04-06T02:11:22.359Z,99630.91
2019-04-06T02:13:54.150Z,99633.30
2019-04-06T02:16:25.399Z,99633.94
2019-04-06T02:18:57.402Z,99634.97
2019-04-06T02:21:29.578Z,99633.66
2019-04-06T02:24:01.812Z,99638.49
2019-04-06T02:26:34.140Z,99632.47
2019-04-06T02:29:05.219Z,99632.13
2019-04-06T02:31:54.943Z,99632.22
2019-04-06T02:34:44.697Z,99634.99
2019-04-06T02:37:41.843Z,99632.21
2019-04-06T02:40:26.818Z,99632.73
2019-04-06T02:43:11.588Z,99633.77
2019-04-06T02:45:43.871Z,99636.23
2019-04-06T02:48:15.983Z,99636.72
2019-04-06T02:50:47.180Z,99640.25
2019-04-06T02:53:19.830Z,99632.14
2019-04-06T02:55:52.154Z,99633.92
2019-04-06T02:58:25.007Z,99637.02
2019-04-06T03:00:58.586Z,99635.82
2019-04-06T03:03:29.520Z,99638.38
2019-04-06T03:06:01.353Z,99632.16
2019-04-06T03:08:33.457Z,99629.94
2019-04-06T03:11:05.652Z,99630.75
2019-04-06T03:13:36.869Z,99635.16
2019-04-06T03:16:08.812Z,99638.39
2019-04-06T03:18:40.984Z,99636.80
2019-04-06T03:21:13.322Z,99636.88
2019-04-06T03:23:51.446Z,99634.42
2019-04-06T03:26:18.002Z,99642.48
2019-04-06T03:28:50.322Z,99637.36
2019-04-06T03:31:26.477Z,99636.16
2019-04-06T03:33:57.644Z,99637.13
2019-04-06T03:36:30.332Z,99639.28
2019-04-06T03:39:02.674Z,99636.69
2019-04-06T03:41:37.051Z,99636.73
2019-04-06T03:44:09.250Z,99632.09
2019-04-06T03:46:40.543Z,99636.96
2019-04-06T03:49:12.422Z,99636.23
2019-04-06T03:51:44.622Z,99638.88
2019-04-06T03:54:16.761Z,99636.03
2019-04-06T03:56:48.731Z,99639.50
2019-04-06T03:59:21.041Z,99635.51
2019-04-06T04:01:53.354Z,99633.03
2019-04-06T04:04:25.520Z,99630.43
2019-04-06T04:06:57.757Z,99634.83
2019-04-06T04:09:28.903Z,99627.63
2019-04-06T04:12:01.832Z,99630.63
2019-04-06T04:14:32.906Z,99638.91
2019-04-06T04:17:04.755Z,99639.91
2019-04-06T04:19:35.885Z,99647.29
2019-04-06T04:22:08.026Z,99642.62
2019-04-06T04:24:40.546Z,99641.39
2019-04-06T04:27:12.669Z,99644.73
2019-04-06T04:29:44.747Z,99648.13
2019-04-06T04:32:16.895Z,99654.48
2019-04-06T04:34:47.939Z,99652.72
2019-04-06T04:37:19.783Z,99651.76
2019-04-06T04:39:52.273Z,99655.17
2019-04-06T04:42:23.541Z,99648.38
2019-04-06T04:44:55.566Z,99661.47
2019-04-06T04:47:27.001Z,99656.94
2019-04-06T04:49:58.911Z,99660.80
2019-04-06T04:52:30.209Z,99664.09
2019-04-06T04:55:02.849Z,99656.47
2019-04-06T04:57:40.181Z,99659.75
2019-04-06T05:00:09.094Z,99662.99
2019-04-06T05:02:41.426Z,99658.41
2019-04-06T05:05:13.699Z,99664.64
2019-04-06T05:07:44.786Z,99666.05
2019-04-06T05:10:16.931Z,99668.37
2019-04-06T05:12:48.980Z,99663.77
2019-04-06T05:15:48.279Z,99670.42
2019-04-06T05:18:20.376Z,99662.69
2019-04-06T05:20:52.403Z,99664.22
2019-04-06T05:23:23.479Z,99667.02
2019-04-06T05:25:55.491Z,99668.36
2019-04-06T05:28:26.479Z,99672.00
2019-04-06T05:30:58.363Z,99668.22
2019-04-06T05:33:30.780Z,99662.25
2019-04-06T05:36:03.044Z,99662.38
2019-04-06T05:38:34.236Z,99662.00
2019-04-06T05:41:06.420Z,99666.02
2019-04-06T05:43:40.482Z,99666.63
2019-04-06T05:46:11.739Z,99665.32
2019-04-06T05:48:43.720Z,99669.22
2019-04-06T05:51:17.001Z,99670.34
2019-04-06T05:53:48.160Z,99664.56
2019-04-06T05:56:20.159Z,99661.95
2019-04-06T05:58:52.472Z,99664.45
2019-04-06T06:01:23.380Z,99660.53
2019-04-06T06:03:55.481Z,99661.54
2019-04-06T06:06:26.425Z,99661.75
2019-04-06T06:08:58.241Z,99662.45
2019-04-06T06:11:30.370Z,99663.38
2019-04-06T06:14:02.660Z,99659.94
2019-04-06T06:16:33.719Z,99660.97
2019-04-06T06:19:05.961Z,99655.75
2019-04-06T06:21:38.507Z,99657.14
2019-04-06T06:24:10.871Z,99647.87
2019-04-06T06:26:41.919Z,99649.11
2019-04-06T06:29:13.740Z,99641.37
2019-04-06T06:31:45.661Z,99641.27
2019-04-06T06:34:17.600Z,99651.66
2019-04-06T06:36:50.131Z,99659.19
2019-04-06T06:39:21.279Z,99648.53
2019-04-06T06:41:53.120Z,99651.24
2019-04-06T06:44:25.080Z,99655.03
2019-04-06T06:46:57.510Z,99650.91
2019-04-06T06:49:30.021Z,99654.62
2019-04-06T06:52:02.370Z,99656.50
2019-04-06T06:54:33.325Z,99657.05
2019-04-06T06:57:05.536Z,99659.00
2019-04-06T06:59:37.831Z,99662.28
2019-04-06T07:02:10.060Z,99658.56
2019-04-06T07:04:42.144Z,99661.95
2019-04-06T07:07:14.160Z,99660.08
2019-04-06T07:09:46.390Z,99655.23
2019-04-06T07:12:17.419Z,99656.52
2019-04-06T07:14:49.370Z,99660.33
2019-04-06T07:17:20.708Z,99659.69
2019-04-06T07:19:52.713Z,99655.38
2019-04-06T07:22:23.720Z,99657.52
2019-04-06T07:24:55.621Z,99657.97
2019-04-06T07:27:27.889Z,99658.95
2019-04-06T07:30:00.080Z,99654.22
2019-04-06T07:32:32.151Z,99654.28
2019-04-06T07:35:04.241Z,99657.43
2019-04-06T07:37:36.191Z,99652.42
2019-04-06T07:40:08.895Z,99643.42
2019-04-06T07:42:40.961Z,99645.80
2019-04-06T07:45:13.367Z,99635.70
2019-04-06T07:47:45.533Z,99636.45
2019-04-06T07:50:17.800Z,99634.05
2019-04-06T07:52:49.962Z,99639.03
2019-04-06T07:55:22.290Z,99634.50
2019-04-06T07:57:54.515Z,99634.30
2019-04-06T08:00:25.700Z,99634.92
2019-04-06T08:02:57.740Z,99632.38
2019-04-06T08:05:29.953Z,99632.44
2019-04-06T08:08:00.953Z,99633.62
2019-04-06T08:10:32.974Z,99626.82
2019-04-06T08:13:04.119Z,99630.97
2019-04-06T08:15:35.991Z,99626.45
2019-04-06T08:18:07.359Z,99615.76
2019-04-06T08:20:39.460Z,99620.13
2019-04-06T08:23:10.379Z,99624.83
2019-04-06T08:25:42.291Z,99623.39
2019-04-06T08:28:14.240Z,99620.70
2019-04-06T08:30:49.180Z,99619.29
2019-04-06T08:33:26.341Z,99607.09
2019-04-06T08:35:57.421Z,99605.71
2019-04-06T08:38:29.920Z,99614.93
2019-04-06T08:41:04.327Z,99618.22
2019-04-06T08:43:36.558Z,99608.93
2019-04-06T08:46:07.649Z,99603.86
2019-04-06T08:48:39.390Z,99603.92
2019-04-06T08:51:11.620Z,99598.92
2019-04-06T08:53:43.601Z,99595.19
2019-04-06T08:56:18.163Z,99592.05
2019-04-06T08:58:50.272Z,99599.36
2019-04-06T09:01:22.332Z,99586.62
2019-04-06T09:03:59.297Z,99589.55
2019-04-06T09:06:31.410Z,99589.98
2019-04-06T09:09:05.535Z,99591.22
2019-04-06T09:11:37.655Z,99594.45
2019-04-06T09:14:10.041Z,99594.16
2019-04-06T09:16:42.403Z,99595.31
2019-04-06T09:19:25.791Z,99597.31
2019-04-06T09:22:03.533Z,99587.16
2019-04-06T09:24:35.730Z,99588.83
2019-04-06T09:27:06.839Z,99591.48
2019-04-06T09:29:38.574Z,99585.81
2019-04-06T09:32:10.768Z,99591.68
2019-04-06T09:34:42.699Z,99588.05
2019-04-06T09:37:14.702Z,99593.88
2019-04-06T09:39:46.864Z,99588.17
2019-04-06T09:42:20.556Z,99592.25
2019-04-06T09:45:14.241Z,99585.09
2019-04-06T09:47:57.631Z,99577.13
2019-04-06T09:50:54.590Z,99582.23
2019-04-06T09:54:06.405Z,99584.20
2019-04-06T09:56:45.591Z,99556.69
2019-04-06T09:59:48.456Z,99583.20
2019-04-06T10:02:42.462Z,99582.03
2019-04-06T10:05:36.881Z,99587.94
2019-04-06T10:08:31.125Z,99573.83
2019-04-06T10:11:24.871Z,99573.02
2019-04-06T10:14:14.148Z,99571.77
2019-04-06T10:17:24.061Z,99569.16
2019-04-06T10:20:07.721Z,99563.02
2019-04-06T10:23:07.680Z,99574.97
2019-04-06T10:26:05.511Z,99566.31
2019-04-06T10:28:56.534Z,99574.84
2019-04-06T10:31:57.169Z,99565.14
2019-04-06T10:34:57.009Z,99569.24
2019-04-06T10:37:40.316Z,99566.08
2019-04-06T10:40:34.331Z,99562.27
2019-04-06T10:43:31.129Z,99556.63
2019-04-06T10:46:25.138Z,99555.98
2019-04-06T10:49:16.174Z,99551.33
2019-04-06T10:51:56.874Z,99549.83
2019-04-06T10:54:48.080Z,99555.29
2019-04-06T10:57:38.990Z,99540.86
2019-04-06T11:00:35.510Z,99540.98
2019-04-06T11:03:35.561Z,99545.09
2019-04-06T11:06:15.590Z,99531.41
2019-04-06T11:08:57.734Z,99540.88
2019-04-06T11:11:54.645Z,99523.39
2019-04-06T11:14:45.774Z,99531.06
2019-04-06T11:17:36.649Z,99528.36
2019-04-06T11:20:39.932Z,99535.86
2019-04-06T11:23:37.169Z,99527.46
2019-04-06T11:26:40.601Z,99525.52
2019-04-06T11:29:26.661Z,99532.22
2019-04-06T11:32:24.618Z,99528.53
2019-04-06T11:35:15.392Z,99523.02
2019-04-06T11:38:18.188Z,99517.33
2019-04-06T11:41:00.363Z,99517.98
2019-04-06T11:43:59.282Z,99523.53
2019-04-06T11:46:48.322Z,99519.13
2019-04-06T11:49:44.978Z,99507.63
2019-04-06T11:52:34.551Z,99513.26
2019-04-06T11:55:34.580Z,99509.17
2019-04-06T11:58:21.210Z,99505.80
2019-04-06T12:01:12.363Z,99502.88
2019-04-06T12:03:53.184Z,99498.38
2019-04-06T12:06:47.144Z,99502.78
2019-04-06T12:09:34.182Z,99510.38
2019-04-06T12:12:23.993Z,99497.61
2019-04-06T12:15:04.450Z,99491.45
2019-04-06T12:17:50.930Z,99492.86
2019-04-06T12:20:50.881Z,99487.75
2019-04-06T12:23:40.391Z,99485.80
2019-04-06T12:26:29.709Z,99477.34
2019-04-06T12:29:38.968Z,99479.22
2019-04-06T12:32:28.100Z,99459.27
2019-04-06T12:35:28.312Z,99476.76
2019-04-06T12:38:25.526Z,99469.00
2019-04-06T12:41:08.618Z,99465.20
2019-04-06T12:44:14.741Z,99468.16
2019-04-06T12:47:23.875Z,99463.94
2019-04-06T12:50:17.562Z,99463.91
2019-04-06T12:53:20.732Z,99452.84
2019-04-06T12:56:14.344Z,99465.63
2019-04-06T12:59:06.304Z,99460.86
2019-04-06T13:01:58.920Z,99476.16
2019-04-06T13:04:43.605Z,99452.78
2019-04-06T13:07:45.554Z,99447.72
2019-04-06T13:10:28.191Z,99453.25
2019-04-06T13:13:28.308Z,99454.95
2019-04-06T13:16:26.405Z,99457.48
2019-04-06T13:19:15.959Z,99450.04
2019-04-06T13:22:01.071Z,99451.83
2019-04-06T13:24:50.690Z,99442.02
2019-04-06T13:27:44.738Z,99434.01
2019-04-06T13:30:38.780Z,99441.38
2019-04-06T13:33:20.530Z,99444.25
2019-04-06T13:36:11.576Z,99445.86
2019-04-06T13:39:05.778Z,99430.45
2019-04-06T13:41:47.190Z,99438.08
2019-04-06T13:44:36.751Z,99435.81
2019-04-06T13:47:23.420Z,99427.70
2019-04-06T13:50:13.393Z,99427.75
2019-04-06T13:52:52.565Z,99427.34
2019-04-06T13:55:52.520Z,99429.44
2019-04-06T13:58:38.320Z,99430.11
2019-04-06T14:01:24.210Z,99428.01
2019-04-06T14:04:13.785Z,99433.38
2019-04-06T14:07:08.300Z,99432.83
2019-04-06T14:10:02.213Z,99428.94
2019-04-06T14:13:08.121Z,99439.41
2019-04-06T14:16:05.091Z,99440.17
2019-04-06T14:19:02.282Z,99435.47
2019-04-06T14:21:43.963Z,99448.89
2019-04-06T14:24:48.257Z,99436.61
2019-04-06T14:27:51.295Z,99442.59
2019-04-06T14:30:36.886Z,99438.32
2019-04-06T14:33:27.781Z,99447.08
2019-04-06T14:36:24.571Z,99441.66
2019-04-06T14:39:21.898Z,99440.77
2019-04-06T14:42:08.557Z,99440.70
2019-04-06T14:44:58.930Z,99441.58
2019-04-06T14:47:55.822Z,99440.38
2019-04-06T14:50:45.502Z,99440.02
2019-04-06T14:53:39.382Z,99438.87
2019-04-06T14:56:25.511Z,99443.98
2019-04-06T14:59:11.502Z,99446.33
2019-04-06T15:01:59.344Z,99443.13
2019-04-06T15:04:48.140Z,99455.52
2019-04-06T15:07:29.380Z,99449.31
2019-04-06T15:10:23.009Z,99453.39
2019-04-06T15:13:08.871Z,99454.63
2019-04-06T15:15:57.967Z,99452.19
2019-04-06T15:18:51.819Z,99448.84
2019-04-06T15:21:48.640Z,99454.91
2019-04-06T15:24:42.924Z,99456.77
2019-04-06T15:27:36.619Z,99456.36
2019-04-06T15:30:46.225Z,99462.30
2019-04-06T15:33:50.360Z,99460.54
2019-04-06T15:36:37.679Z,99470.56
2019-04-06T15:39:26.611Z,99455.90
2019-04-06T15:42:20.596Z,99470.45
2019-04-06T15:45:14.270Z,99479.62
2019-04-06T15:48:08.287Z,99471.62
2019-04-06T15:51:00.630Z,99469.70
2019-04-06T15:53:51.045Z,99465.72
2019-04-06T15:56:38.938Z,99468.59
2019-04-06T15:59:33.455Z,99466.56
2019-04-06T16:02:50.050Z,99470.30
2019-04-06T16:05:45.033Z,99471.94
2019-04-06T16:08:58.166Z,99459.42
2019-04-06T16:12:01.264Z,99465.19
2019-04-06T16:15:00.349Z,99465.91
2019-04-06T16:18:04.186Z,99461.07
2019-04-06T16:20:48.259Z,99463.30
2019-04-06T16:23:45.771Z,99467.98
2019-04-06T16:26:22.409Z,99470.25
2019-04-06T16:29:13.256Z,99473.58
2019-04-06T16:32:12.329Z,99471.80
2019-04-06T16:35:04.700Z,99470.83
2019-04-06T16:38:02.909Z,99475.72
2019-04-06T16:40:59.241Z,99469.78
2019-04-06T16:43:56.040Z,99481.88
2019-04-06T16:46:47.220Z,99479.12
2019-04-06T16:53:11.440Z,99479.28
2019-04-06T16:56:08.605Z,99478.83
2019-04-06T16:59:18.783Z,99478.16
2019-04-06T17:01:58.779Z,99478.81
2019-04-06T17:04:43.150Z,99470.22
2019-04-06T17:07:34.024Z,99473.50
2019-04-06T17:10:22.613Z,99468.67
2019-04-06T17:13:12.434Z,99469.47
2019-04-06T17:16:03.601Z,99467.12
2019-04-06T17:18:54.479Z,99461.55
2019-04-06T17:21:52.108Z,99466.44
2019-04-06T17:24:37.390Z,99467.17
2019-04-06T17:27:33.819Z,99467.82
2019-04-06T17:30:15.478Z,99465.78
2019-04-06T17:33:28.781Z,99462.97
2019-04-06T17:36:15.836Z,99462.78
2019-04-06T17:52:15.456Z,99462.48
2019-04-06T17:55:01.902Z,99457.72
2019-04-06T17:58:00.748Z,99461.48
2019-04-06T18:00:57.778Z,99462.73
2019-04-06T18:03:58.799Z,99460.83
2019-04-06T18:06:48.400Z,99458.13
2019-04-06T18:09:36.372Z,99451.28
2019-04-06T18:12:28.756Z,99458.89
2019-04-06T18:15:02.048Z,99458.41
2019-04-06T18:17:34.872Z,99455.31
2019-04-06T18:20:08.533Z,99461.22
2019-04-06T18:22:48.267Z,99460.67
2019-04-06T18:25:22.309Z,99456.88
2019-04-06T18:27:55.031Z,99458.48
2019-04-06T18:30:33.752Z,99456.30
2019-04-06T18:33:13.861Z,99456.86
2019-04-06T18:35:46.496Z,99457.59
2019-04-06T18:38:46.838Z,99454.59
2019-04-06T18:41:20.586Z,99452.36
2019-04-06T18:43:53.531Z,99452.95
2019-04-06T18:46:26.228Z,99445.23
2019-04-06T18:48:58.790Z,99442.23
2019-04-06T18:51:31.653Z,99442.41
2019-04-06T18:54:04.148Z,99441.77
2019-04-06T18:56:36.889Z,99445.35
2019-04-06T18:59:09.546Z,99439.23
2019-04-06T19:01:42.007Z,99440.18
2019-04-06T19:04:14.688Z,99434.52
2019-04-06T19:06:47.657Z,99428.52
2019-04-06T19:09:24.020Z,99429.28
2019-04-06T19:12:00.690Z,99429.13
2019-04-06T19:14:36.180Z,99432.30
2019-04-06T19:17:08.889Z,99425.35
2019-04-06T19:19:41.608Z,99418.31
2019-04-06T19:22:14.109Z,99412.59
2019-04-06T19:24:46.870Z,99408.77
2019-04-06T19:27:19.556Z,99410.64
2019-04-06T19:29:52.206Z,99411.48
2019-04-06T19:32:25.034Z,99407.34
2019-04-06T19:34:57.678Z,99403.95
2019-04-06T19:37:30.539Z,99400.41
2019-04-06T19:40:04.387Z,99400.39
2019-04-06T19:42:37.491Z,99392.31
2019-04-06T19:45:11.301Z,99393.72
2019-04-06T19:47:43.840Z,99391.20
2019-04-06T19:50:17.660Z,99391.47
2019-04-06T19:52:50.688Z,99380.77
2019-04-06T19:55:23.248Z,99384.40
2019-04-06T19:57:56.235Z,99381.27
2019-04-06T20:00:29.187Z,99381.06
2019-04-06T20:03:01.768Z,99374.55
2019-04-06T20:05:34.623Z,99375.78
2019-04-06T20:08:07.189Z,99368.73
2019-04-06T20:10:39.705Z,99372.55
2019-04-06T20:13:12.295Z,99370.20
2019-04-06T20:15:44.766Z,99368.13
2019-04-06T20:18:17.401Z,99371.77
2019-04-06T20:21:11.806Z,99363.44
2019-04-06T20:23:53.304Z,99364.18
2019-04-06T20:26:26.547Z,99362.00
2019-04-06T20:29:00.270Z,99359.63
2019-04-06T20:31:33.416Z,99361.91
2019-04-06T20:34:08.811Z,99363.45
2019-04-06T20:36:41.957Z,99359.66
2019-04-06T20:39:14.623Z,99360.66
2019-04-06T20:41:48.152Z,99359.94
2019-04-06T20:46:49.448Z,99358.63
2019-04-06T20:49:22.337Z,99360.09
2019-04-06T20:51:55.727Z,99356.24
2019-04-06T20:54:29.805Z,99352.20
2019-04-06T20:57:02.770Z,99349.68
2019-04-06T20:59:35.870Z,99349.35
2019-04-06T21:02:08.437Z,99343.34
2019-04-06T21:04:41.084Z,99347.06
2019-04-06T21:07:13.867Z,99348.57
2019-04-06T21:09:46.487Z,99347.48
2019-04-06T21:12:20.858Z,99353.37
2019-04-06T21:14:54.715Z,99355.87
2019-04-06T21:17:27.813Z,99345.44
2019-04-06T21:20:17.212Z,99347.18
2019-04-06T21:26:44.267Z,99344.94
2019-04-06T21:29:17.027Z,99343.58
2019-04-06T21:31:52.129Z,99340.30
2019-04-06T21:34:27.306Z,99337.27
2019-04-06T21:36:59.816Z,99338.75
2019-04-06T21:39:32.392Z,99345.81
2019-04-06T21:42:04.865Z,99337.09
2019-04-06T21:44:37.598Z,99333.45
2019-04-06T21:47:12.377Z,99324.47
2019-04-06T21:49:44.855Z,99329.63
2019-04-06T21:52:18.043Z,99330.75
2019-04-06T21:54:51.970Z,99329.81
2019-04-06T21:57:37.644Z,99333.66
2019-04-06T22:00:43.666Z,99329.58
2019-04-06T22:03:17.913Z,99325.08
2019-04-06T22:05:50.825Z,99330.61
2019-04-06T22:08:23.307Z,99325.08
2019-04-06T22:10:56.008Z,99323.66
2019-04-06T22:13:28.601Z,99327.97
2019-04-06T22:16:01.148Z,99327.03
2019-04-06T22:18:33.966Z,99322.65
2019-04-06T22:21:06.920Z,99317.48
2019-04-06T22:23:43.339Z,99329.42
2019-04-06T22:26:13.568Z,99332.41
2019-04-06T22:28:45.937Z,99336.14
2019-04-06T22:31:18.606Z,99325.60
2019-04-06T22:33:51.376Z,99323.33
2019-04-06T22:36:24.330Z,99333.70
2019-04-06T22:38:57.213Z,99319.48
2019-04-06T22:41:30.275Z,99320.53
2019-04-06T22:44:03.038Z,99313.77
2019-04-06T22:46:35.618Z,99315.48
2019-04-06T22:49:08.706Z,99314.96
2019-04-06T22:51:41.146Z,99312.83
2019-04-06T22:54:15.205Z,99309.38
2019-04-06T22:56:48.685Z,99306.61
2019-04-06T22:59:21.095Z,99303.17
2019-04-06T23:01:53.685Z,99299.95
2019-04-06T23:04:50.895Z,99300.58
2019-04-06T23:07:24.557Z,99305.73
2019-04-06T23:09:57.699Z,99312.05
2019-04-06T23:12:31.463Z,99316.80
2019-04-06T23:15:04.981Z,99315.97
2019-04-06T23:17:37.656Z,99314.73
2019-04-06T23:20:10.501Z,99313.36
2019-04-06T23:22:44.621Z,99316.12
2019-04-06T23:25:17.047Z,99299.19
2019-04-06T23:27:49.907Z,99299.11
2019-04-06T23:30:22.680Z,99297.80
2019-04-06T23:32:56.316Z,99295.41
2019-04-06T23:35:28.960Z,99283.80
2019-04-06T23:38:03.167Z,99282.56
2019-04-06T23:40:36.469Z,99286.81
2019-04-06T23:43:09.707Z,99278.56
2019-04-06T23:45:43.317Z,99281.41
2019-04-06T23:48:17.629Z,99281.18
2019-04-06T23:50:50.320Z,99292.17
2019-04-06T23:53:23.157Z,99284.70
2019-04-06T23:55:55.801Z,99289.08
2019-04-06T23:58:29.582Z,99286.01
